createdAt,value
2022-10-01T00:01:30.322Z,15.03
2022-10-01T00:03:58.778Z,14.64
2022-10-01T00:06:26.852Z,14.63
2022-10-01T00:08:55.144Z,14.58
2022-10-01T00:11:25.110Z,14.86
2022-10-01T00:13:54.347Z,14.73
2022-10-01T00:16:25.517Z,14.81
2022-10-01T00:18:55.798Z,14.88
2022-10-01T00:21:25.896Z,14.92
2022-10-01T00:23:56.072Z,14.95
2022-10-01T00:26:28.258Z,14.99
2022-10-01T00:28:56.799Z,15.59
2022-10-01T00:31:25.779Z,14.67
2022-10-01T00:33:55.978Z,14.92
2022-10-01T00:36:24.421Z,14.49
2022-10-01T00:38:52.487Z,14.54
2022-10-01T00:41:20.816Z,14.58
2022-10-01T00:43:53.679Z,14.97
2022-10-01T00:46:25.517Z,14.96
2022-10-01T00:48:59.219Z,15.00
2022-10-01T00:51:30.967Z,14.77
2022-10-01T00:54:02.844Z,14.83
2022-10-01T00:56:31.604Z,14.59
2022-10-01T00:59:00.338Z,14.49
2022-10-01T01:01:28.886Z,14.39
2022-10-01T01:03:59.118Z,14.74
2022-10-01T01:06:27.201Z,14.34
2022-10-01T01:08:55.932Z,14.52
2022-10-01T01:11:30.577Z,14.92
2022-10-01T01:14:03.851Z,14.81
2022-10-01T01:16:35.589Z,14.68
2022-10-01T01:19:10.600Z,14.81
2022-10-01T01:21:42.712Z,14.77
2022-10-01T01:24:35.330Z,14.86
2022-10-01T01:27:16.497Z,14.99
2022-10-01T01:29:52.521Z,14.95
2022-10-01T01:32:27.761Z,14.87
2022-10-01T01:35:02.389Z,14.70
2022-10-01T01:37:34.831Z,14.73
2022-10-01T01:40:05.201Z,14.67
2022-10-01T01:42:36.842Z,14.60
2022-10-01T01:45:09.971Z,14.77
2022-10-01T01:47:39.836Z,14.55
2022-10-01T01:50:08.776Z,14.31
2022-10-01T01:52:37.510Z,14.35
2022-10-01T01:55:08.572Z,14.34
2022-10-01T01:57:39.304Z,14.70
2022-10-01T02:00:11.563Z,14.65
2022-10-01T02:02:41.732Z,14.52
2022-10-01T02:05:11.536Z,14.54
2022-10-01T02:08:14.346Z,14.84
2022-10-01T02:10:55.821Z,14.87
2022-10-01T02:13:31.151Z,14.77
2022-10-01T02:16:06.281Z,14.73
2022-10-01T02:18:40.616Z,14.70
2022-10-01T02:21:12.442Z,14.57
2022-10-01T02:23:45.422Z,14.54
2022-10-01T02:26:17.626Z,14.57
2022-10-01T02:28:47.787Z,14.39
2022-10-01T02:31:19.191Z,14.37
2022-10-01T02:33:48.692Z,14.13
2022-10-01T02:36:17.646Z,14.06
2022-10-01T02:38:47.087Z,14.13
2022-10-01T02:41:17.431Z,14.13
2022-10-01T02:43:51.786Z,14.21
2022-10-01T02:46:28.626Z,14.26
2022-10-01T02:48:57.097Z,13.69
2022-10-01T02:51:34.309Z,14.19
2022-10-01T02:54:07.367Z,14.16
2022-10-01T02:56:56.275Z,13.73
2022-10-01T02:59:24.617Z,13.78
2022-10-01T03:01:54.432Z,14.11
2022-10-01T03:04:22.610Z,13.76
2022-10-01T03:06:50.924Z,13.90
2022-10-01T03:09:19.248Z,13.74
2022-10-01T03:11:47.420Z,13.84
2022-10-01T03:14:15.598Z,13.74
2022-10-01T03:16:43.970Z,13.67
2022-10-01T03:19:13.662Z,14.05
2022-10-01T03:21:41.793Z,13.73
2022-10-01T03:24:10.369Z,13.65
2022-10-01T03:26:38.848Z,13.77
2022-10-01T03:29:07.202Z,13.49
2022-10-01T03:31:35.953Z,13.46
2022-10-01T03:34:04.613Z,13.45
2022-10-01T03:36:34.229Z,13.67
2022-10-01T03:39:02.647Z,13.23
2022-10-01T03:41:30.994Z,13.11
2022-10-01T03:44:00.624Z,13.14
2022-10-01T03:46:29.214Z,13.02
2022-10-01T03:49:01.036Z,13.17
2022-10-01T03:51:29.353Z,12.93
2022-10-01T03:53:59.696Z,13.22
2022-10-01T03:56:27.877Z,12.83
2022-10-01T03:58:56.023Z,12.73
2022-10-01T04:01:24.404Z,12.72
2022-10-01T04:03:52.716Z,12.69
2022-10-01T04:06:20.948Z,12.67
2022-10-01T04:08:50.415Z,12.69
2022-10-01T04:11:19.923Z,12.82
2022-10-01T04:13:48.263Z,12.39
2022-10-01T04:16:16.921Z,12.29
2022-10-01T04:18:45.143Z,12.35
2022-10-01T04:21:15.405Z,12.32
2022-10-01T04:23:43.823Z,12.23
2022-10-01T04:26:11.973Z,12.17
2022-10-01T04:28:41.473Z,12.36
2022-10-01T04:31:28.062Z,11.92
2022-10-01T04:33:57.489Z,12.13
2022-10-01T04:36:27.040Z,12.17
2022-10-01T04:39:00.849Z,12.11
2022-10-01T04:41:31.901Z,11.96
2022-10-01T04:44:01.887Z,12.24
2022-10-01T04:46:30.873Z,11.89
2022-10-01T04:48:59.443Z,11.92
2022-10-01T04:51:27.444Z,11.98
2022-10-01T04:53:55.695Z,12.19
2022-10-01T04:56:23.928Z,12.39
2022-10-01T04:58:51.990Z,12.55
2022-10-01T05:01:21.541Z,13.04
2022-10-01T05:03:49.899Z,12.68
2022-10-01T05:06:18.087Z,12.79
2022-10-01T05:08:46.088Z,12.90
2022-10-01T05:11:14.295Z,13.00
2022-10-01T05:13:42.404Z,13.14
2022-10-01T05:16:11.893Z,13.34
2022-10-01T05:18:41.667Z,13.56
2022-10-01T05:21:11.771Z,13.40
2022-10-01T05:23:39.957Z,13.33
2022-10-01T05:26:08.518Z,13.31
2022-10-01T05:28:37.226Z,13.53
2022-10-01T05:31:05.800Z,13.49
2022-10-01T05:33:34.598Z,13.43
2022-10-01T05:36:05.331Z,13.78
2022-10-01T05:38:36.275Z,13.49
2022-10-01T05:41:05.035Z,13.60
2022-10-01T05:43:33.333Z,13.57
2022-10-01T05:46:02.768Z,13.82
2022-10-01T05:48:36.949Z,13.66
2022-10-01T05:51:08.392Z,14.03
2022-10-01T05:53:38.162Z,13.79
2022-10-01T05:56:07.011Z,13.78
2022-10-01T05:58:35.592Z,13.76
2022-10-01T06:01:04.244Z,13.69
2022-10-01T06:03:32.566Z,13.75
2022-10-01T06:06:00.920Z,13.87
2022-10-01T06:08:30.582Z,14.24
2022-10-01T06:11:02.568Z,14.51
2022-10-01T06:13:32.126Z,14.21
2022-10-01T06:16:00.367Z,14.28
2022-10-01T06:18:28.561Z,14.43
2022-10-01T06:20:59.423Z,14.90
2022-10-01T06:23:27.556Z,14.55
2022-10-01T06:25:57.178Z,15.02
2022-10-01T06:28:25.503Z,14.78
2022-10-01T06:30:54.021Z,14.96
2022-10-01T06:33:22.230Z,14.89
2022-10-01T06:35:51.740Z,15.02
2022-10-01T06:38:21.656Z,15.12
2022-10-01T06:40:54.715Z,15.41
2022-10-01T06:43:24.761Z,15.35
2022-10-01T06:45:53.187Z,15.00
2022-10-01T06:48:21.976Z,15.18
2022-10-01T06:50:52.365Z,15.41
2022-10-01T06:53:20.485Z,15.00
2022-10-01T06:55:51.061Z,15.20
2022-10-01T06:58:21.127Z,15.39
2022-10-01T07:00:51.535Z,15.57
2022-10-01T07:03:21.226Z,15.60
2022-10-01T07:05:49.763Z,15.51
2022-10-01T07:08:18.154Z,15.50
2022-10-01T07:10:46.777Z,15.60
2022-10-01T07:13:16.541Z,15.68
2022-10-01T07:15:45.466Z,15.75
2022-10-01T07:18:15.441Z,16.04
2022-10-01T07:20:43.844Z,15.85
2022-10-01T07:23:13.668Z,16.38
2022-10-01T07:25:51.394Z,16.52
2022-10-01T07:28:24.099Z,16.85
2022-10-01T07:30:59.728Z,17.09
2022-10-01T07:33:29.968Z,16.88
2022-10-01T07:36:01.576Z,16.93
2022-10-01T07:38:29.986Z,16.48
2022-10-01T07:40:59.101Z,16.53
2022-10-01T07:43:27.444Z,16.73
2022-10-01T07:45:58.277Z,16.81
2022-10-01T07:48:26.828Z,16.87
2022-10-01T07:50:57.947Z,17.06
2022-10-01T07:53:26.427Z,16.75
2022-10-01T07:55:54.673Z,16.66
2022-10-01T07:58:24.283Z,16.63
2022-10-01T08:00:56.309Z,16.74
2022-10-01T08:03:24.518Z,16.90
2022-10-01T08:05:54.865Z,17.14
2022-10-01T08:08:24.671Z,17.53
2022-10-01T08:10:52.906Z,17.17
2022-10-01T08:13:24.989Z,17.28
2022-10-01T08:15:54.997Z,17.31
2022-10-01T08:18:23.852Z,17.45
2022-10-01T08:20:52.597Z,17.41
2022-10-01T08:23:21.733Z,17.41
2022-10-01T08:25:51.216Z,17.77
2022-10-01T08:28:19.743Z,17.53
2022-10-01T08:30:48.265Z,17.71
2022-10-01T08:33:16.457Z,17.70
2022-10-01T08:35:44.975Z,17.77
2022-10-01T08:38:13.692Z,17.54
2022-10-01T08:40:47.536Z,17.92
2022-10-01T08:43:30.308Z,18.29
2022-10-01T08:46:01.807Z,18.16
2022-10-01T08:48:54.785Z,18.26
2022-10-01T08:51:29.040Z,18.41
2022-10-01T08:53:59.502Z,18.37
2022-10-01T08:56:31.109Z,18.49
2022-10-01T08:59:03.367Z,18.63
2022-10-01T09:01:31.700Z,18.51
2022-10-01T09:04:00.647Z,18.62
2022-10-01T09:06:29.584Z,18.88
2022-10-01T09:09:15.269Z,18.98
2022-10-01T09:11:56.063Z,18.96
2022-10-01T09:14:36.174Z,19.44
2022-10-01T09:17:07.431Z,19.50
2022-10-01T09:19:54.631Z,19.94
2022-10-01T09:22:31.886Z,19.91
2022-10-01T09:25:07.276Z,19.90
2022-10-01T09:27:35.888Z,19.52
2022-10-01T09:30:08.399Z,19.98
2022-10-01T09:32:40.976Z,19.80
2022-10-01T09:35:21.146Z,19.73
2022-10-01T09:37:54.795Z,19.48
2022-10-01T09:40:28.276Z,19.42
2022-10-01T09:42:57.634Z,19.07
2022-10-01T09:45:27.570Z,19.42
2022-10-01T09:47:59.905Z,19.47
2022-10-01T09:50:32.672Z,19.23
2022-10-01T09:53:01.555Z,18.62
2022-10-01T09:55:32.919Z,18.60
2022-10-01T09:58:04.672Z,18.42
2022-10-01T10:00:34.793Z,18.30
2022-10-01T10:03:03.133Z,17.96
2022-10-01T10:05:40.966Z,18.28
2022-10-01T10:08:13.747Z,18.49
2022-10-01T10:10:50.835Z,18.66
2022-10-01T10:13:21.721Z,18.41
2022-10-01T10:15:55.072Z,18.66
2022-10-01T10:18:29.100Z,18.79
2022-10-01T10:20:57.922Z,18.58
2022-10-01T10:23:29.161Z,18.42
2022-10-01T10:26:01.067Z,18.62
2022-10-01T10:28:30.241Z,18.42
2022-10-01T10:30:59.893Z,18.80
2022-10-01T10:33:28.414Z,18.64
2022-10-01T10:36:02.190Z,19.29
2022-10-01T10:38:32.978Z,19.40
2022-10-01T10:41:01.743Z,19.01
2022-10-01T10:43:33.189Z,19.20
2022-10-01T10:46:03.051Z,19.29
2022-10-01T10:48:33.724Z,19.15
2022-10-01T10:51:03.562Z,19.03
2022-10-01T10:53:41.788Z,19.18
2022-10-01T10:56:21.169Z,19.31
2022-10-01T10:58:50.251Z,18.82
2022-10-01T11:01:26.510Z,19.32
2022-10-01T11:03:57.818Z,18.86
2022-10-01T11:06:26.304Z,19.01
2022-10-01T11:09:00.847Z,20.08
2022-10-01T11:11:47.383Z,20.55
2022-10-01T11:14:26.882Z,20.61
2022-10-01T11:17:13.055Z,20.79
2022-10-01T11:19:53.042Z,21.03
2022-10-01T11:22:32.901Z,21.17
2022-10-01T11:25:09.869Z,20.65
2022-10-01T11:27:46.452Z,20.75
2022-10-01T11:30:19.484Z,20.50
2022-10-01T11:32:55.023Z,20.37
2022-10-01T11:35:31.237Z,20.28
2022-10-01T11:38:23.483Z,20.31
2022-10-01T11:40:55.481Z,20.46
2022-10-01T11:43:26.904Z,20.22
2022-10-01T11:45:57.658Z,20.22
2022-10-01T11:48:32.664Z,20.14
2022-10-01T11:51:04.433Z,20.21
2022-10-01T11:53:38.062Z,20.28
2022-10-01T11:56:26.442Z,20.40
2022-10-01T11:58:58.546Z,20.47
2022-10-01T12:01:31.141Z,20.51
2022-10-01T12:04:08.779Z,20.60
2022-10-01T12:06:41.982Z,20.38
2022-10-01T12:09:15.636Z,20.34
2022-10-01T12:11:48.090Z,20.38
2022-10-01T12:14:20.068Z,20.21
2022-10-01T12:16:52.874Z,20.17
2022-10-01T12:19:25.250Z,19.88
2022-10-01T12:21:57.868Z,19.82
2022-10-01T12:24:29.540Z,19.69
2022-10-01T12:27:08.889Z,19.85
2022-10-01T12:29:45.415Z,19.55
2022-10-01T12:32:20.475Z,19.41
2022-10-01T12:34:58.529Z,19.46
2022-10-01T12:37:36.710Z,19.63
2022-10-01T12:40:13.686Z,19.56
2022-10-01T12:42:54.289Z,19.70
2022-10-01T12:45:29.863Z,19.56
2022-10-01T12:48:04.413Z,19.18
2022-10-01T12:50:42.211Z,19.17
2022-10-01T12:53:22.469Z,19.14
2022-10-01T12:55:56.734Z,18.80
2022-10-01T12:58:51.274Z,19.10
2022-10-01T13:01:28.186Z,18.91
2022-10-01T13:04:14.121Z,19.20
2022-10-01T13:06:53.040Z,19.07
2022-10-01T13:09:25.270Z,18.78
2022-10-01T13:12:03.171Z,18.90
2022-10-01T13:14:33.258Z,18.49
2022-10-01T13:17:06.037Z,18.69
2022-10-01T13:19:40.770Z,18.85
2022-10-01T13:22:16.365Z,19.03
2022-10-01T13:24:47.001Z,18.95
2022-10-01T13:27:19.689Z,19.39
2022-10-01T13:29:53.499Z,19.35
2022-10-01T13:32:28.677Z,19.69
2022-10-01T13:34:58.105Z,19.51
2022-10-01T13:37:36.520Z,20.03
2022-10-01T13:40:05.975Z,19.38
2022-10-01T13:42:43.206Z,19.70
2022-10-01T13:45:23.836Z,19.61
2022-10-01T13:47:52.418Z,18.76
2022-10-01T13:50:23.905Z,19.13
2022-10-01T13:52:54.128Z,19.12
2022-10-01T13:55:27.896Z,19.30
2022-10-01T13:58:06.122Z,19.31
2022-10-01T14:00:34.694Z,18.62
2022-10-01T14:03:06.198Z,18.75
2022-10-01T14:05:38.082Z,18.85
2022-10-01T14:08:15.740Z,18.83
2022-10-01T14:11:06.325Z,18.88
2022-10-01T14:13:55.653Z,19.12
2022-10-01T14:16:23.983Z,18.89
2022-10-01T14:18:52.746Z,19.05
2022-10-01T14:21:34.030Z,19.54
2022-10-01T14:24:10.378Z,19.69
2022-10-01T14:26:42.553Z,19.50
2022-10-01T14:29:18.925Z,19.69
2022-10-01T14:31:56.361Z,19.70
2022-10-01T14:34:34.184Z,19.72
2022-10-01T14:37:02.486Z,19.16
2022-10-01T14:39:33.429Z,19.57
2022-10-01T14:42:16.461Z,19.58
2022-10-01T14:44:47.304Z,19.24
2022-10-01T14:47:20.251Z,19.25
2022-10-01T14:49:49.188Z,18.72
2022-10-01T14:52:22.907Z,19.13
2022-10-01T14:54:58.959Z,19.29
2022-10-01T14:57:31.655Z,19.19
2022-10-01T15:00:02.748Z,18.90
2022-10-01T15:02:31.008Z,18.54
2022-10-01T15:04:59.376Z,18.42
2022-10-01T15:07:33.230Z,18.85
2022-10-01T15:10:09.490Z,19.01
2022-10-01T15:12:40.744Z,19.01
2022-10-01T15:15:20.101Z,18.95
2022-10-01T15:17:48.603Z,18.49
2022-10-01T15:20:17.460Z,18.51
2022-10-01T15:22:48.065Z,18.56
2022-10-01T15:25:21.095Z,18.62
2022-10-01T15:27:50.277Z,18.26
2022-10-01T15:30:19.704Z,18.17
2022-10-01T15:32:49.126Z,18.11
2022-10-01T15:35:20.256Z,18.26
2022-10-01T15:37:50.455Z,17.94
2022-10-01T15:40:27.471Z,18.29
2022-10-01T15:43:14.479Z,18.25
2022-10-01T15:45:42.955Z,17.62
2022-10-01T15:48:29.340Z,18.23
2022-10-01T15:51:01.196Z,17.87
2022-10-01T15:53:29.786Z,17.51
2022-10-01T15:56:00.296Z,17.76
2022-10-01T15:58:32.020Z,17.67
2022-10-01T16:01:03.054Z,17.55
2022-10-01T16:03:33.588Z,17.47
2022-10-01T16:06:02.903Z,17.40
2022-10-01T16:08:34.860Z,17.36
2022-10-01T16:11:18.137Z,17.65
2022-10-01T16:13:47.103Z,17.01
2022-10-01T16:16:21.935Z,17.23
2022-10-01T16:18:54.325Z,17.15
2022-10-01T16:21:23.321Z,16.85
2022-10-01T16:23:53.098Z,16.86
2022-10-01T16:26:40.249Z,17.57
2022-10-01T16:29:21.126Z,17.58
2022-10-01T16:31:49.410Z,16.99
2022-10-01T16:34:19.600Z,17.24
2022-10-01T16:36:47.833Z,16.97
2022-10-01T16:39:16.242Z,16.86
2022-10-01T16:42:01.386Z,17.17
2022-10-01T16:44:35.599Z,17.03
2022-10-01T16:47:03.954Z,16.81
2022-10-01T16:49:32.016Z,16.90
2022-10-01T16:52:00.195Z,16.79
2022-10-01T16:54:28.919Z,16.84
2022-10-01T16:57:00.374Z,17.09
2022-10-01T16:59:28.285Z,17.74
2022-10-01T17:01:57.675Z,16.75
2022-10-01T17:04:30.366Z,16.70
2022-10-01T17:07:01.550Z,16.72
2022-10-01T17:09:29.587Z,16.67
2022-10-01T17:11:59.147Z,16.96
2022-10-01T17:14:27.938Z,16.67
2022-10-01T17:16:56.341Z,16.69
2022-10-01T17:19:24.700Z,16.65
2022-10-01T17:21:53.347Z,16.57
2022-10-01T17:24:21.444Z,16.66
2022-10-01T17:26:49.727Z,16.69
2022-10-01T17:29:19.440Z,17.05
2022-10-01T17:31:53.543Z,16.70
2022-10-01T17:34:22.281Z,16.61
2022-10-01T17:36:50.753Z,16.53
2022-10-01T17:39:18.878Z,16.45
2022-10-01T17:41:47.375Z,16.53
2022-10-01T17:44:15.482Z,16.45
2022-10-01T17:46:45.308Z,16.62
2022-10-01T17:49:14.685Z,16.37
2022-10-01T17:51:42.966Z,16.39
2022-10-01T17:54:11.445Z,16.47
2022-10-01T17:56:40.871Z,16.30
2022-10-01T17:59:09.117Z,16.19
2022-10-01T18:01:37.562Z,16.08
2022-10-01T18:04:07.220Z,16.71
2022-10-01T18:06:35.932Z,16.25
2022-10-01T18:09:04.484Z,16.30
2022-10-01T18:11:32.920Z,16.30
2022-10-01T18:14:01.237Z,16.19
2022-10-01T18:16:30.194Z,16.33
2022-10-01T18:21:51.212Z,16.39
2022-10-01T18:24:19.757Z,16.01
2022-10-01T18:26:48.102Z,15.97
2022-10-01T18:29:18.792Z,16.39
2022-10-01T18:31:47.103Z,16.07
2022-10-01T18:34:19.665Z,16.44
2022-10-01T18:36:55.234Z,16.59
2022-10-01T18:39:28.120Z,16.57
2022-10-01T18:41:57.903Z,16.25
2022-10-01T18:44:26.816Z,16.20
2022-10-01T18:47:04.902Z,16.55
2022-10-01T18:49:49.106Z,16.66
2022-10-01T18:52:25.503Z,16.43
2022-10-01T18:55:05.506Z,16.17
2022-10-01T18:57:46.375Z,16.13
2022-10-01T19:00:16.262Z,15.79
2022-10-01T19:02:54.261Z,15.94
2022-10-01T19:05:50.103Z,16.01
2022-10-01T19:08:29.933Z,15.76
2022-10-01T19:11:04.891Z,15.63
2022-10-01T19:13:39.899Z,15.43
2022-10-01T19:16:18.143Z,15.53
2022-10-01T19:18:59.036Z,15.42
2022-10-01T19:21:32.850Z,15.23
2022-10-01T19:24:20.528Z,15.33
2022-10-01T19:26:54.001Z,14.83
2022-10-01T19:29:34.162Z,14.80
2022-10-01T19:32:04.348Z,14.52
2022-10-01T19:34:35.890Z,14.58
2022-10-01T19:37:07.955Z,14.42
2022-10-01T19:39:39.801Z,14.41
2022-10-01T19:42:11.678Z,14.18
2022-10-01T19:44:44.351Z,14.45
2022-10-01T19:47:29.678Z,14.43
2022-10-01T19:50:01.756Z,14.23
2022-10-01T19:52:34.560Z,14.28
2022-10-01T19:55:07.029Z,14.09
2022-10-01T19:57:39.269Z,13.73
2022-10-01T20:00:17.700Z,14.21
2022-10-01T20:02:52.069Z,14.15
2022-10-01T20:05:22.962Z,14.06
2022-10-01T20:08:00.709Z,14.28
2022-10-01T20:10:38.341Z,14.23
2022-10-01T20:13:27.550Z,14.33
2022-10-01T20:16:01.225Z,14.09
2022-10-01T20:18:35.267Z,14.12
2022-10-01T20:21:12.644Z,14.28
2022-10-01T20:23:46.946Z,14.24
2022-10-01T20:26:25.006Z,14.62
2022-10-01T20:29:11.603Z,14.75
2022-10-01T20:31:43.906Z,14.64
2022-10-01T20:34:19.501Z,14.67
2022-10-01T20:36:52.618Z,14.49
2022-10-01T20:39:26.283Z,14.49
2022-10-01T20:41:56.365Z,14.46
2022-10-01T20:44:27.915Z,14.51
2022-10-01T20:47:00.327Z,14.48
2022-10-01T20:49:32.406Z,14.36
2022-10-01T20:52:05.485Z,14.28
2022-10-01T20:54:37.392Z,14.20
2022-10-01T20:57:10.862Z,14.15
2022-10-01T20:59:42.178Z,14.08
2022-10-01T21:02:24.765Z,14.21
2022-10-01T21:04:57.505Z,13.91
2022-10-01T21:07:31.619Z,13.90
2022-10-01T21:10:03.393Z,13.86
2022-10-01T21:12:37.092Z,13.88
2022-10-01T21:15:07.448Z,13.47
2022-10-01T21:17:42.205Z,13.82
2022-10-01T21:20:21.441Z,13.84
2022-10-01T21:22:59.370Z,13.82
2022-10-01T21:25:38.552Z,13.77
2022-10-01T21:28:21.221Z,13.92
2022-10-01T21:31:00.109Z,13.85
2022-10-01T21:33:32.944Z,13.73
2022-10-01T21:36:04.187Z,13.65
2022-10-01T21:38:35.245Z,13.51
2022-10-01T21:41:36.598Z,13.85
2022-10-01T21:44:25.264Z,13.83
2022-10-01T21:46:58.249Z,13.59
2022-10-01T21:49:34.476Z,13.53
2022-10-01T21:52:11.736Z,13.69
2022-10-01T21:55:00.926Z,14.01
2022-10-01T21:57:40.940Z,13.94
2022-10-01T22:00:19.088Z,13.87
2022-10-01T22:03:06.347Z,14.06
2022-10-01T22:05:38.813Z,13.87
2022-10-01T22:08:35.716Z,14.16
2022-10-01T22:11:05.960Z,13.63
2022-10-01T22:13:36.398Z,13.61
2022-10-01T22:16:09.801Z,13.74
2022-10-01T22:18:41.769Z,13.67
2022-10-01T22:21:13.275Z,13.69
2022-10-01T22:23:45.161Z,13.66
2022-10-01T22:26:16.546Z,13.71
2022-10-01T22:28:48.617Z,13.68
2022-10-01T22:31:21.181Z,13.81
2022-10-01T22:33:53.858Z,13.81
2022-10-01T22:36:25.996Z,13.66
2022-10-01T22:38:57.393Z,13.58
2022-10-01T22:41:29.861Z,13.63
2022-10-01T22:43:58.434Z,13.25
2022-10-01T22:46:46.652Z,13.71
2022-10-01T22:49:24.140Z,13.55
2022-10-01T22:52:01.895Z,13.64
2022-10-01T22:54:36.507Z,13.63
2022-10-01T22:57:13.962Z,13.53
2022-10-01T22:59:49.250Z,13.44
2022-10-01T23:02:26.255Z,13.60
2022-10-01T23:05:07.372Z,13.74
2022-10-01T23:07:42.405Z,13.69
2022-10-01T23:10:15.398Z,13.43
2022-10-01T23:13:01.296Z,13.52
2022-10-01T23:15:36.050Z,13.60
2022-10-01T23:18:11.057Z,13.58
2022-10-01T23:20:46.020Z,13.66
2022-10-01T23:23:30.953Z,13.74
2022-10-01T23:26:18.527Z,13.79
2022-10-01T23:28:55.711Z,13.53
2022-10-01T23:31:31.396Z,13.49
2022-10-01T23:34:10.259Z,13.54
2022-10-01T23:36:46.837Z,13.57
2022-10-01T23:39:38.246Z,13.70
2022-10-01T23:42:09.915Z,14.12
2022-10-01T23:44:41.265Z,13.53
2022-10-01T23:47:13.494Z,13.39
2022-10-01T23:49:48.817Z,13.63
2022-10-01T23:52:22.487Z,13.65
2022-10-01T23:54:52.731Z,13.48
2022-10-01T23:57:24.458Z,13.56
2022-10-01T23:59:53.881Z,14.03
